»·PEaware :: AAL554 KSEA-KJAC

AAL554 :: KSEA-KJAC

FLIGHT INFORMATION

Flight Status: Arrived
Operator:
American Airlines
More flights by this operator :: More flights under this callsign
Pilot: Shawn G. (7208)
Aircraft: MCDONNELL-DOUGLAS MD-88
(MD88)
More flights by this aircraft type
Origin: KSEA Seattle-Tacoma Intl
United States
Destination: KJAC Jackson Hole
United States
More flights between these airports :: More routes between these airports
Route: SUMMA9 SUMMA J54 BKE DNW
File this flight plan on PilotEdge
Remarks: PBN / A1B2 DOF / 170619 REG / N237AA EET / KZLC0032 OPR / AAL RMK / TCAS SIMBRIEF
Altitude:
(Current/Filed)
33,000ft
Speed:
(Current/Filed)
455kts
Departed: 18-Jun-17 06:22 PM
Arrived: 18-Jun-17 07:52 PM
Distance/Time
Traveled:
788nm/1:30
Distance/Time
To Go:
Arrived

Flight Plot

Page will automatically refresh every two minutes.

Flight plan parsing failed; only flown route is shown


Map Options




Map Legend


Flown Route
Filed Route
Departure Airport
Arrival Airport
Navaid (VOR, NDB)
Fix

Horizontal Profiles

Position Reports

Time Latitude Longitude Heading Altitude Ground
Speed
18-Jun-17 17:53 47.438018 -122.297518 5 439ft 0kts
18-Jun-17 17:54 47.438018 -122.297518 5 439ft 0kts
18-Jun-17 17:55 47.438018 -122.297518 5 439ft 0kts
18-Jun-17 17:56 47.438018 -122.297518 5 439ft 0kts
18-Jun-17 17:57 47.438018 -122.297518 5 439ft 0kts
18-Jun-17 17:58 47.438018 -122.297518 5 439ft 0kts
18-Jun-17 17:59 47.438018 -122.297518 5 439ft 0kts
18-Jun-17 18:00 47.438018 -122.297518 5 439ft 0kts
18-Jun-17 18:01 47.438018 -122.297518 5 439ft 0kts
18-Jun-17 18:02 47.438018 -122.297518 5 439ft 0kts
18-Jun-17 18:03 47.438018 -122.297518 5 439ft 0kts
18-Jun-17 18:04 47.438018 -122.297518 5 439ft 0kts
18-Jun-17 18:05 47.438018 -122.297518 5 439ft 0kts
18-Jun-17 18:06 47.438018 -122.297518 5 439ft 0kts
18-Jun-17 18:07 47.438018 -122.297518 5 439ft 0kts
18-Jun-17 18:08 47.438018 -122.297518 5 439ft 0kts
18-Jun-17 18:09 47.438018 -122.297518 5 439ft 0kts
18-Jun-17 18:10 47.438018 -122.297518 5 439ft 0kts
18-Jun-17 18:11 47.438018 -122.297518 5 439ft 0kts
18-Jun-17 18:12 47.437776 -122.297703 50 439ft 0kts
18-Jun-17 18:13 47.437693 -122.298923 148 439ft 0kts
18-Jun-17 18:14 47.437843 -122.298908 220 439ft 0kts
18-Jun-17 18:15 47.437843 -122.298908 220 439ft 0kts
18-Jun-17 18:16 47.437843 -122.298908 220 439ft 0kts
18-Jun-17 18:17 47.437843 -122.298908 220 439ft 0kts
18-Jun-17 18:18 47.437733 -122.299064 231 439ft 1kts
18-Jun-17 18:19 47.437376 -122.301963 256 439ft 10kts
18-Jun-17 18:20 47.437251 -122.305820 257 439ft 12kts
18-Jun-17 18:21 47.434095 -122.305609 182 439ft 16kts
18-Jun-17 18:22 47.431106 -122.305865 243 439ft 6kts
18-Jun-17 18:23 47.431065 -122.306397 281 439ft 0kts
18-Jun-17 18:24 47.432005 -122.308030 0 439ft 10kts
18-Jun-17 18:25 47.462440 -122.307439 3 943ft 164kts
18-Jun-17 18:26 47.507704 -122.308109 359 3109ft 168kts
18-Jun-17 18:27 47.555699 -122.308921 353 5235ft 200kts
18-Jun-17 18:28 47.613447 -122.261757 76 7045ft 303kts
18-Jun-17 18:29 47.623467 -122.136939 88 10266ft 341kts
18-Jun-17 18:30 47.617194 -121.988380 127 12947ft 369kts
18-Jun-17 18:31 47.530751 -121.942983 190 14971ft 351kts
18-Jun-17 18:32 47.432668 -121.958329 190 15963ft 357kts
18-Jun-17 18:33 47.333358 -121.973568 190 16976ft 363kts
18-Jun-17 18:34 47.232100 -121.989094 190 17920ft 370kts
18-Jun-17 18:35 47.130006 -122.004702 191 18905ft 374kts
18-Jun-17 18:36 47.031233 -121.960235 138 19733ft 418kts
18-Jun-17 18:36 46.969123 -121.850166 134 20560ft 426kts
18-Jun-17 18:38 46.883634 -121.697389 133 21534ft 437kts
18-Jun-17 18:39 46.812944 -121.567443 133 22483ft 441kts
18-Jun-17 18:39 46.749791 -121.450010 133 23330ft 443kts
18-Jun-17 18:40 46.675488 -121.308709 133 24325ft 444kts
18-Jun-17 18:41 46.601142 -121.168262 134 25107ft 448kts
18-Jun-17 18:42 46.523924 -121.024849 134 25630ft 457kts
18-Jun-17 18:43 46.445364 -120.878566 134 26250ft 463kts
18-Jun-17 18:44 46.366986 -120.732181 134 27232ft 457kts
18-Jun-17 18:45 46.289582 -120.587374 134 27957ft 457kts
18-Jun-17 18:46 46.208675 -120.435876 133 28606ft 504kts
18-Jun-17 18:47 46.122856 -120.274307 134 30286ft 528kts
18-Jun-17 18:48 46.034044 -120.106703 134 32542ft 529kts
18-Jun-17 18:49 45.945656 -119.939607 134 33075ft 528kts
18-Jun-17 18:50 45.859080 -119.775377 134 33074ft 528kts
18-Jun-17 18:51 45.771266 -119.608323 134 33055ft 529kts
18-Jun-17 18:52 45.683047 -119.440667 133 33058ft 529kts
18-Jun-17 18:53 45.597013 -119.275983 134 33043ft 528kts
18-Jun-17 18:54 45.509751 -119.108508 134 33098ft 529kts
18-Jun-17 18:55 45.422051 -118.939689 133 33103ft 530kts
18-Jun-17 18:56 45.334844 -118.771332 133 33106ft 531kts
18-Jun-17 18:57 45.247545 -118.602303 133 33109ft 531kts
18-Jun-17 18:58 45.160920 -118.434033 133 33194ft 528kts
18-Jun-17 18:59 45.085316 -118.286428 137 33120ft 446kts
18-Jun-17 19:00 45.011883 -118.143584 136 33146ft 452kts
18-Jun-17 19:01 44.938571 -118.000140 136 33173ft 452kts
18-Jun-17 19:02 44.866507 -117.858799 136 33190ft 453kts
18-Jun-17 19:03 44.826797 -117.687600 110 33171ft 456kts
18-Jun-17 19:04 44.800979 -117.525654 114 33159ft 399kts
18-Jun-17 19:05 44.775525 -117.373735 114 33197ft 404kts
18-Jun-17 19:06 44.751034 -117.225310 114 33185ft 403kts
18-Jun-17 19:07 44.725924 -117.072048 114 33186ft 403kts
18-Jun-17 19:08 44.700974 -116.918490 114 33240ft 405kts
18-Jun-17 19:09 44.676151 -116.764342 114 33242ft 405kts
18-Jun-17 19:10 44.651525 -116.610120 113 33244ft 406kts
18-Jun-17 19:11 44.625405 -116.452398 100 33242ft 432kts
18-Jun-17 19:12 44.599960 -116.282960 105 33267ft 478kts
18-Jun-17 19:13 44.571826 -116.101530 105 33246ft 476kts
18-Jun-17 19:14 44.542379 -115.909997 104 33269ft 529kts
18-Jun-17 19:15 44.511139 -115.703891 103 33218ft 531kts
18-Jun-17 19:16 44.480401 -115.499146 103 33338ft 554kts
18-Jun-17 19:17 44.451809 -115.290632 103 33312ft 553kts
18-Jun-17 19:18 44.422270 -115.089445 103 33303ft 524kts
18-Jun-17 19:19 44.392350 -114.883252 103 33293ft 554kts
18-Jun-17 19:20 44.362392 -114.673869 102 33245ft 553kts
18-Jun-17 19:21 44.332547 -114.462827 102 33248ft 554kts
18-Jun-17 19:22 44.303614 -114.254966 102 33233ft 553kts
18-Jun-17 19:23 44.274681 -114.044787 102 33236ft 554kts
18-Jun-17 19:24 44.246051 -113.833822 101 33240ft 554kts
18-Jun-17 19:25 44.218292 -113.622941 101 33245ft 554kts
18-Jun-17 19:26 44.191330 -113.412141 100 33249ft 554kts
18-Jun-17 19:27 44.165369 -113.206643 101 33234ft 554kts
18-Jun-17 19:28 44.139739 -112.998469 100 33246ft 550kts
18-Jun-17 19:29 44.113402 -112.788330 101 33215ft 552kts
18-Jun-17 19:31 44.086851 -112.577738 100 33219ft 553kts
18-Jun-17 19:32 44.060763 -112.367690 100 33223ft 553kts
18-Jun-17 19:33 44.036209 -112.167155 100 32370ft 544kts
18-Jun-17 19:34 44.011200 -111.959891 100 29743ft 543kts
18-Jun-17 19:35 43.987282 -111.758390 100 28489ft 510kts
18-Jun-17 19:36 43.965012 -111.568288 100 26213ft 493kts
18-Jun-17 19:37 43.943557 -111.382420 99 23816ft 470kts
18-Jun-17 19:38 43.924397 -111.214206 100 21892ft 441kts
18-Jun-17 19:39 43.906050 -111.051185 100 19653ft 418kts
18-Jun-17 19:40 43.874552 -110.909596 121 18075ft 397kts
18-Jun-17 19:41 43.821431 -110.786734 121 17002ft 353kts
18-Jun-17 19:42 43.775398 -110.677201 121 16969ft 311kts
18-Jun-17 19:43 43.735999 -110.570325 120 17018ft 308kts
18-Jun-17 19:44 43.693861 -110.473268 120 16087ft 277kts
18-Jun-17 19:45 43.653668 -110.380506 119 15095ft 280kts
18-Jun-17 19:46 43.686365 -110.314404 355 14992ft 266kts
18-Jun-17 19:47 43.760044 -110.325383 355 14495ft 265kts
18-Jun-17 19:48 43.825171 -110.358173 297 13015ft 259kts
18-Jun-17 19:49 43.821202 -110.453913 262 11249ft 253kts
18-Jun-17 19:50 43.809837 -110.548650 248 10673ft 252kts
18-Jun-17 19:51 43.780342 -110.630230 237 9829ft 230kts
18-Jun-17 19:52 43.728747 -110.681708 200 8669ft 229kts
18-Jun-17 19:53 43.673991 -110.705393 199 7614ft 167kts
18-Jun-17 19:54 43.632878 -110.725301 198 6841ft 160kts
18-Jun-17 19:55 43.599631 -110.741272 165 6457ft 19kts
18-Jun-17 19:56 43.601248 -110.739121 19 6457ft 11kts
18-Jun-17 19:57 43.602807 -110.737741 112 6457ft 2kts
18-Jun-17 19:58 43.602788 -110.737666 109 6457ft 0kts
18-Jun-17 19:59 43.602788 -110.737666 109 6457ft 0kts
18-Jun-17 20:00 43.602788 -110.737666 109 6457ft 0kts
18-Jun-17 20:07 58.358304 -134.582975 0 26ft 0kts
18-Jun-17 20:08 58.358304 -134.582975 0 26ft 0kts
18-Jun-17 20:09 58.358304 -134.582975 0 26ft 0kts

Navigation Log

Ident Type
Flight plan parsing failed, navigation log unavailable